Antwerp, Ohio
Current Conditions -  °F | °C
As of 8:35 AM on Thursday 30 Oct 2014 (Local Time) from KGWB Reporting Station
Overcast Overcast  
Wind Chill: 43°   Ceiling: 3400
Heat Index: 43°   Visibility: 10mi
Dew Point: 36°   Wind: 3mph
Humidity: 76%   Direction: 230°SW
Pressure: 30.15"   Gusts: NA
Location:  41.18°N, 84.74°W
Report Text: KGWB 301235Z AUTO 23003KT 10SM OVC034 06/02 A3015 RMK AO2
Loading
Personal Weather Stations






























Interactive Weather Map
Tropical Storm Tracking
New forecast layout! Learn more

10-Day Weather Forecast

Advertisements
Track Severe Weather on mobile